sensor_id;sensor_type;location;lat;lon;timestamp;temperature;humidity
59128;DHT22;44912;52.754;5.994;2023-06-01T00:01:52;13.00;99.90
59128;DHT22;44912;52.754;5.994;2023-06-01T00:04:17;13.00;99.90
59128;DHT22;44912;52.754;5.994;2023-06-01T00:06:43;13.00;99.90
59128;DHT22;44912;52.754;5.994;2023-06-01T00:09:09;13.00;99.90
59128;DHT22;44912;52.754;5.994;2023-06-01T00:11:34;13.00;99.90
59128;DHT22;44912;52.754;5.994;2023-06-01T00:14:00;13.10;99.90
59128;DHT22;44912;52.754;5.994;2023-06-01T00:16:26;13.00;99.90
59128;DHT22;44912;52.754;5.994;2023-06-01T00:18:51;13.00;99.90
59128;DHT22;44912;52.754;5.994;2023-06-01T00:21:18;12.90;99.90
59128;DHT22;44912;52.754;5.994;2023-06-01T00:23:44;13.00;99.90
59128;DHT22;44912;52.754;5.994;2023-06-01T00:26:10;12.90;99.90
59128;DHT22;44912;52.754;5.994;2023-06-01T00:28:36;13.00;99.90
59128;DHT22;44912;52.754;5.994;2023-06-01T00:31:02;13.00;99.90
59128;DHT22;44912;52.754;5.994;2023-06-01T00:33:27;13.00;99.90
59128;DHT22;44912;52.754;5.994;2023-06-01T00:35:53;13.00;99.90
59128;DHT22;44912;52.754;5.994;2023-06-01T00:38:19;12.90;99.90
59128;DHT22;44912;52.754;5.994;2023-06-01T00:40:44;12.90;99.90
59128;DHT22;44912;52.754;5.994;2023-06-01T00:43:10;12.90;99.90
59128;DHT22;44912;52.754;5.994;2023-06-01T00:45:37;12.90;99.90
59128;DHT22;44912;52.754;5.994;2023-06-01T00:48:06;12.80;99.90
59128;DHT22;44912;52.754;5.994;2023-06-01T00:50:32;12.80;99.90
59128;DHT22;44912;52.754;5.994;2023-06-01T00:52:58;12.80;99.90
59128;DHT22;44912;52.754;5.994;2023-06-01T00:55:26;12.80;99.90
59128;DHT22;44912;52.754;5.994;2023-06-01T00:57:52;12.70;99.90
59128;DHT22;44912;52.754;5.994;2023-06-01T01:00:20;12.70;99.90
59128;DHT22;44912;52.754;5.994;2023-06-01T01:02:45;12.70;99.90
59128;DHT22;44912;52.754;5.994;2023-06-01T01:05:15;12.70;99.90
59128;DHT22;44912;52.754;5.994;2023-06-01T01:12:50;12.80;99.90
59128;DHT22;44912;52.754;5.994;2023-06-01T01:15:21;12.80;99.90
59128;DHT22;44912;52.754;5.994;2023-06-01T01:17:54;12.80;99.90
59128;DHT22;44912;52.754;5.994;2023-06-01T01:20:26;12.80;99.90
59128;DHT22;44912;52.754;5.994;2023-06-01T01:26:27;12.80;99.90
59128;DHT22;44912;52.754;5.994;2023-06-01T01:29:05;12.80;99.90
59128;DHT22;44912;52.754;5.994;2023-06-01T01:31:32;12.80;99.90
59128;DHT22;44912;52.754;5.994;2023-06-01T01:33:59;12.80;99.90
59128;DHT22;44912;52.754;5.994;2023-06-01T01:36:27;12.80;99.90
59128;DHT22;44912;52.754;5.994;2023-06-01T01:38:54;12.80;99.90
59128;DHT22;44912;52.754;5.994;2023-06-01T01:41:19;12.80;99.90
59128;DHT22;44912;52.754;5.994;2023-06-01T01:43:45;12.70;99.90
59128;DHT22;44912;52.754;5.994;2023-06-01T01:46:28;12.70;99.90
59128;DHT22;44912;52.754;5.994;2023-06-01T01:49:12;12.60;99.90
59128;DHT22;44912;52.754;5.994;2023-06-01T01:54:27;12.60;99.90
59128;DHT22;44912;52.754;5.994;2023-06-01T01:56:54;12.50;99.90
59128;DHT22;44912;52.754;5.994;2023-06-01T01:59:23;12.50;99.90
59128;DHT22;44912;52.754;5.994;2023-06-01T02:01:48;12.50;99.90
59128;DHT22;44912;52.754;5.994;2023-06-01T02:04:14;12.50;99.90
59128;DHT22;44912;52.754;5.994;2023-06-01T02:06:40;12.50;99.90
59128;DHT22;44912;52.754;5.994;2023-06-01T02:09:05;12.50;99.90
59128;DHT22;44912;52.754;5.994;2023-06-01T02:11:33;12.50;99.90
59128;DHT22;44912;52.754;5.994;2023-06-01T02:13:59;12.40;99.90
59128;DHT22;44912;52.754;5.994;2023-06-01T02:16:25;12.40;99.90
59128;DHT22;44912;52.754;5.994;2023-06-01T02:18:51;12.40;99.90
59128;DHT22;44912;52.754;5.994;2023-06-01T02:21:17;12.40;99.90
59128;DHT22;44912;52.754;5.994;2023-06-01T02:23:42;12.40;99.90
59128;DHT22;44912;52.754;5.994;2023-06-01T02:26:11;12.40;99.90
59128;DHT22;44912;52.754;5.994;2023-06-01T02:28:37;12.40;99.90
59128;DHT22;44912;52.754;5.994;2023-06-01T02:31:04;12.30;99.90
59128;DHT22;44912;52.754;5.994;2023-06-01T02:33:30;12.30;99.90
59128;DHT22;44912;52.754;5.994;2023-06-01T02:35:56;12.30;99.90
59128;DHT22;44912;52.754;5.994;2023-06-01T02:38:21;12.30;99.90
59128;DHT22;44912;52.754;5.994;2023-06-01T02:40:47;12.30;99.90
59128;DHT22;44912;52.754;5.994;2023-06-01T02:43:12;12.30;99.90
59128;DHT22;44912;52.754;5.994;2023-06-01T02:45:38;12.30;99.90
59128;DHT22;44912;52.754;5.994;2023-06-01T02:48:04;12.30;99.90
59128;DHT22;44912;52.754;5.994;2023-06-01T02:50:29;12.30;99.90
59128;DHT22;44912;52.754;5.994;2023-06-01T02:52:55;12.30;99.90
59128;DHT22;44912;52.754;5.994;2023-06-01T02:55:20;12.30;99.90
59128;DHT22;44912;52.754;5.994;2023-06-01T02:57:46;12.20;99.90
59128;DHT22;44912;52.754;5.994;2023-06-01T03:00:12;12.20;99.90
59128;DHT22;44912;52.754;5.994;2023-06-01T03:02:46;12.20;99.90
59128;DHT22;44912;52.754;5.994;2023-06-01T03:05:12;12.20;99.90
59128;DHT22;44912;52.754;5.994;2023-06-01T03:07:49;12.20;99.90
59128;DHT22;44912;52.754;5.994;2023-06-01T03:10:15;12.20;99.90
59128;DHT22;44912;52.754;5.994;2023-06-01T03:12:40;12.20;99.90
59128;DHT22;44912;52.754;5.994;2023-06-01T03:15:06;12.10;99.90
59128;DHT22;44912;52.754;5.994;2023-06-01T03:17:32;12.10;99.90
59128;DHT22;44912;52.754;5.994;2023-06-01T03:19:58;12.10;99.90
59128;DHT22;44912;52.754;5.994;2023-06-01T03:22:24;12.20;99.90
59128;DHT22;44912;52.754;5.994;2023-06-01T03:24:50;12.20;99.90
59128;DHT22;44912;52.754;5.994;2023-06-01T03:27:18;12.20;99.90
59128;DHT22;44912;52.754;5.994;2023-06-01T03:29:45;12.20;99.90
59128;DHT22;44912;52.754;5.994;2023-06-01T03:32:11;12.20;99.90
59128;DHT22;44912;52.754;5.994;2023-06-01T03:34:37;12.20;99.90
59128;DHT22;44912;52.754;5.994;2023-06-01T03:37:04;12.20;99.90
59128;DHT22;44912;52.754;5.994;2023-06-01T03:39:30;12.20;99.90
59128;DHT22;44912;52.754;5.994;2023-06-01T03:41:59;12.30;99.90
59128;DHT22;44912;52.754;5.994;2023-06-01T03:44:25;12.30;99.90
59128;DHT22;44912;52.754;5.994;2023-06-01T03:46:51;12.30;99.90
59128;DHT22;44912;52.754;5.994;2023-06-01T03:49:16;12.30;99.90
59128;DHT22;44912;52.754;5.994;2023-06-01T03:51:42;12.30;99.90
59128;DHT22;44912;52.754;5.994;2023-06-01T03:54:08;12.30;99.90
59128;DHT22;44912;52.754;5.994;2023-06-01T03:56:34;12.30;99.90
59128;DHT22;44912;52.754;5.994;2023-06-01T03:59:00;12.20;99.90
59128;DHT22;44912;52.754;5.994;2023-06-01T04:01:26;12.30;99.90
59128;DHT22;44912;52.754;5.994;2023-06-01T04:03:54;12.20;99.90
59128;DHT22;44912;52.754;5.994;2023-06-01T04:06:21;12.20;99.90
59128;DHT22;44912;52.754;5.994;2023-06-01T04:08:47;12.20;99.90
59128;DHT22;44912;52.754;5.994;2023-06-01T04:11:21;12.20;99.90
59128;DHT22;44912;52.754;5.994;2023-06-01T04:13:47;12.20;99.90
59128;DHT22;44912;52.754;5.994;2023-06-01T04:16:13;12.20;99.90
59128;DHT22;44912;52.754;5.994;2023-06-01T04:18:38;12.20;99.90
59128;DHT22;44912;52.754;5.994;2023-06-01T04:21:04;12.20;99.90
59128;DHT22;44912;52.754;5.994;2023-06-01T04:23:31;12.20;99.90
59128;DHT22;44912;52.754;5.994;2023-06-01T04:25:56;12.30;99.90
59128;DHT22;44912;52.754;5.994;2023-06-01T04:28:25;12.30;99.90
59128;DHT22;44912;52.754;5.994;2023-06-01T04:30:51;12.40;99.90
59128;DHT22;44912;52.754;5.994;2023-06-01T04:33:17;12.40;99.90
59128;DHT22;44912;52.754;5.994;2023-06-01T04:35:43;12.40;99.90
59128;DHT22;44912;52.754;5.994;2023-06-01T04:38:09;12.40;99.90
59128;DHT22;44912;52.754;5.994;2023-06-01T04:40:35;12.40;99.90
59128;DHT22;44912;52.754;5.994;2023-06-01T04:43:00;12.40;99.90
59128;DHT22;44912;52.754;5.994;2023-06-01T04:45:28;12.40;99.90
59128;DHT22;44912;52.754;5.994;2023-06-01T04:47:56;12.40;99.90
59128;DHT22;44912;52.754;5.994;2023-06-01T04:50:23;12.40;99.90
59128;DHT22;44912;52.754;5.994;2023-06-01T04:52:48;12.50;99.90
59128;DHT22;44912;52.754;5.994;2023-06-01T04:55:15;12.50;99.90
59128;DHT22;44912;52.754;5.994;2023-06-01T04:57:42;12.50;99.90
59128;DHT22;44912;52.754;5.994;2023-06-01T05:00:13;12.60;99.90
59128;DHT22;44912;52.754;5.994;2023-06-01T05:02:39;12.60;99.90
59128;DHT22;44912;52.754;5.994;2023-06-01T05:05:06;12.50;99.90
59128;DHT22;44912;52.754;5.994;2023-06-01T05:07:33;12.60;99.90
59128;DHT22;44912;52.754;5.994;2023-06-01T05:09:58;12.50;99.90
59128;DHT22;44912;52.754;5.994;2023-06-01T05:12:29;12.50;99.90
59128;DHT22;44912;52.754;5.994;2023-06-01T05:14:55;12.50;99.90
59128;DHT22;44912;52.754;5.994;2023-06-01T05:17:20;12.60;99.90
59128;DHT22;44912;52.754;5.994;2023-06-01T05:19:46;12.50;99.90
59128;DHT22;44912;52.754;5.994;2023-06-01T05:22:11;12.50;99.90
59128;DHT22;44912;52.754;5.994;2023-06-01T05:24:37;12.50;99.90
59128;DHT22;44912;52.754;5.994;2023-06-01T05:27:03;12.50;99.90
59128;DHT22;44912;52.754;5.994;2023-06-01T05:29:29;12.60;99.90
59128;DHT22;44912;52.754;5.994;2023-06-01T05:31:54;12.60;99.90
59128;DHT22;44912;52.754;5.994;2023-06-01T05:34:20;12.60;99.90
59128;DHT22;44912;52.754;5.994;2023-06-01T05:36:46;12.60;99.90
59128;DHT22;44912;52.754;5.994;2023-06-01T05:39:12;12.60;99.90
59128;DHT22;44912;52.754;5.994;2023-06-01T05:41:37;12.60;99.90
59128;DHT22;44912;52.754;5.994;2023-06-01T05:44:04;12.70;99.90
59128;DHT22;44912;52.754;5.994;2023-06-01T05:46:29;12.70;99.90
59128;DHT22;44912;52.754;5.994;2023-06-01T05:48:55;12.70;99.90
59128;DHT22;44912;52.754;5.994;2023-06-01T05:51:21;12.60;99.90
59128;DHT22;44912;52.754;5.994;2023-06-01T05:53:46;12.70;99.90
59128;DHT22;44912;52.754;5.994;2023-06-01T05:56:12;12.70;99.90
59128;DHT22;44912;52.754;5.994;2023-06-01T05:58:38;12.60;99.90
59128;DHT22;44912;52.754;5.994;2023-06-01T06:01:03;12.70;99.90
59128;DHT22;44912;52.754;5.994;2023-06-01T06:03:30;12.70;99.90
59128;DHT22;44912;52.754;5.994;2023-06-01T06:05:55;12.70;99.90
59128;DHT22;44912;52.754;5.994;2023-06-01T06:08:21;12.70;99.90
59128;DHT22;44912;52.754;5.994;2023-06-01T06:10:47;12.80;99.90
59128;DHT22;44912;52.754;5.994;2023-06-01T06:13:14;12.80;99.90
59128;DHT22;44912;52.754;5.994;2023-06-01T06:15:40;12.90;99.90
59128;DHT22;44912;52.754;5.994;2023-06-01T06:18:05;12.90;99.90
59128;DHT22;44912;52.754;5.994;2023-06-01T06:20:31;13.00;99.90
59128;DHT22;44912;52.754;5.994;2023-06-01T06:22:56;13.10;99.90
59128;DHT22;44912;52.754;5.994;2023-06-01T06:25:25;13.10;99.90
59128;DHT22;44912;52.754;5.994;2023-06-01T06:27:51;13.20;99.90
59128;DHT22;44912;52.754;5.994;2023-06-01T06:30:16;13.20;99.90
59128;DHT22;44912;52.754;5.994;2023-06-01T06:32:42;13.20;99.90
59128;DHT22;44912;52.754;5.994;2023-06-01T06:35:08;13.20;99.90
59128;DHT22;44912;52.754;5.994;2023-06-01T06:37:39;13.30;99.90
59128;DHT22;44912;52.754;5.994;2023-06-01T06:40:05;13.30;99.90
59128;DHT22;44912;52.754;5.994;2023-06-01T06:42:31;13.30;99.90
59128;DHT22;44912;52.754;5.994;2023-06-01T06:44:57;13.40;99.90
59128;DHT22;44912;52.754;5.994;2023-06-01T06:47:23;13.40;99.90
59128;DHT22;44912;52.754;5.994;2023-06-01T06:49:50;13.40;99.90
59128;DHT22;44912;52.754;5.994;2023-06-01T06:52:16;13.40;99.90
59128;DHT22;44912;52.754;5.994;2023-06-01T06:54:42;13.40;99.90
59128;DHT22;44912;52.754;5.994;2023-06-01T06:57:08;13.50;99.90
59128;DHT22;44912;52.754;5.994;2023-06-01T06:59:33;13.50;99.90
59128;DHT22;44912;52.754;5.994;2023-06-01T07:01:59;13.60;99.90
59128;DHT22;44912;52.754;5.994;2023-06-01T07:04:25;13.60;99.90
59128;DHT22;44912;52.754;5.994;2023-06-01T07:06:50;13.70;99.90
59128;DHT22;44912;52.754;5.994;2023-06-01T07:09:16;13.70;99.90
59128;DHT22;44912;52.754;5.994;2023-06-01T07:11:42;13.70;99.90
59128;DHT22;44912;52.754;5.994;2023-06-01T07:14:11;13.70;99.90
59128;DHT22;44912;52.754;5.994;2023-06-01T07:16:37;13.60;99.90
59128;DHT22;44912;52.754;5.994;2023-06-01T07:19:02;13.60;99.90
59128;DHT22;44912;52.754;5.994;2023-06-01T07:21:28;13.70;99.90
59128;DHT22;44912;52.754;5.994;2023-06-01T07:23:54;13.70;99.90
59128;DHT22;44912;52.754;5.994;2023-06-01T07:26:19;13.80;99.90
59128;DHT22;44912;52.754;5.994;2023-06-01T07:28:45;13.70;99.90
59128;DHT22;44912;52.754;5.994;2023-06-01T07:31:11;13.80;99.90
59128;DHT22;44912;52.754;5.994;2023-06-01T07:33:37;13.90;99.90
59128;DHT22;44912;52.754;5.994;2023-06-01T07:36:03;14.00;99.90
59128;DHT22;44912;52.754;5.994;2023-06-01T07:38:29;14.00;99.90
59128;DHT22;44912;52.754;5.994;2023-06-01T07:40:55;14.10;99.90
59128;DHT22;44912;52.754;5.994;2023-06-01T07:43:20;14.20;99.90
59128;DHT22;44912;52.754;5.994;2023-06-01T07:45:46;14.20;99.90
59128;DHT22;44912;52.754;5.994;2023-06-01T07:48:11;14.30;99.90
59128;DHT22;44912;52.754;5.994;2023-06-01T07:50:37;14.50;99.90
59128;DHT22;44912;52.754;5.994;2023-06-01T07:53:03;14.50;99.90
59128;DHT22;44912;52.754;5.994;2023-06-01T07:55:29;14.60;99.90
59128;DHT22;44912;52.754;5.994;2023-06-01T07:57:54;14.70;99.90
59128;DHT22;44912;52.754;5.994;2023-06-01T08:00:20;14.70;99.90
59128;DHT22;44912;52.754;5.994;2023-06-01T08:02:47;14.80;99.90
59128;DHT22;44912;52.754;5.994;2023-06-01T08:05:13;14.80;99.90
59128;DHT22;44912;52.754;5.994;2023-06-01T08:07:42;14.80;99.90
59128;DHT22;44912;52.754;5.994;2023-06-01T08:10:09;14.80;99.90
59128;DHT22;44912;52.754;5.994;2023-06-01T08:12:35;14.80;99.90
59128;DHT22;44912;52.754;5.994;2023-06-01T08:15:02;14.80;99.90
59128;DHT22;44912;52.754;5.994;2023-06-01T08:17:29;14.50;99.90
59128;DHT22;44912;52.754;5.994;2023-06-01T08:19:55;14.40;99.90
59128;DHT22;44912;52.754;5.994;2023-06-01T08:22:22;14.40;99.90
59128;DHT22;44912;52.754;5.994;2023-06-01T08:24:49;14.50;99.90
59128;DHT22;44912;52.754;5.994;2023-06-01T08:27:22;14.60;99.90
59128;DHT22;44912;52.754;5.994;2023-06-01T08:29:49;14.60;99.90
59128;DHT22;44912;52.754;5.994;2023-06-01T08:32:15;14.50;99.90
59128;DHT22;44912;52.754;5.994;2023-06-01T08:34:43;14.50;99.90
59128;DHT22;44912;52.754;5.994;2023-06-01T08:37:09;14.40;99.90
59128;DHT22;44912;52.754;5.994;2023-06-01T08:39:34;14.30;99.90
59128;DHT22;44912;52.754;5.994;2023-06-01T08:42:39;14.30;99.90
59128;DHT22;44912;52.754;5.994;2023-06-01T08:45:06;14.40;99.90
59128;DHT22;44912;52.754;5.994;2023-06-01T08:47:32;14.40;99.90
59128;DHT22;44912;52.754;5.994;2023-06-01T08:50:01;14.50;99.90
59128;DHT22;44912;52.754;5.994;2023-06-01T08:52:29;14.60;99.90
59128;DHT22;44912;52.754;5.994;2023-06-01T08:55:01;14.60;99.90
59128;DHT22;44912;52.754;5.994;2023-06-01T08:57:30;14.80;99.90
59128;DHT22;44912;52.754;5.994;2023-06-01T08:59:57;14.80;99.90
59128;DHT22;44912;52.754;5.994;2023-06-01T09:02:24;14.90;99.90
59128;DHT22;44912;52.754;5.994;2023-06-01T09:04:51;15.00;99.90
59128;DHT22;44912;52.754;5.994;2023-06-01T09:07:17;15.00;99.90
59128;DHT22;44912;52.754;5.994;2023-06-01T09:09:43;15.10;99.90
59128;DHT22;44912;52.754;5.994;2023-06-01T09:12:25;15.00;99.90
59128;DHT22;44912;52.754;5.994;2023-06-01T09:15:15;14.90;99.90
59128;DHT22;44912;52.754;5.994;2023-06-01T09:17:45;14.90;99.90
59128;DHT22;44912;52.754;5.994;2023-06-01T09:20:28;14.80;99.90
59128;DHT22;44912;52.754;5.994;2023-06-01T09:22:54;14.60;99.90
59128;DHT22;44912;52.754;5.994;2023-06-01T09:25:31;14.60;99.90
59128;DHT22;44912;52.754;5.994;2023-06-01T09:27:59;14.60;99.90
59128;DHT22;44912;52.754;5.994;2023-06-01T09:30:28;14.70;99.90
59128;DHT22;44912;52.754;5.994;2023-06-01T09:33:14;14.80;99.90
59128;DHT22;44912;52.754;5.994;2023-06-01T09:35:48;14.70;99.90
59128;DHT22;44912;52.754;5.994;2023-06-01T09:38:22;14.50;99.90
59128;DHT22;44912;52.754;5.994;2023-06-01T09:40:59;14.30;99.90
59128;DHT22;44912;52.754;5.994;2023-06-01T09:43:26;14.10;99.90
59128;DHT22;44912;52.754;5.994;2023-06-01T09:46:05;14.00;99.90
59128;DHT22;44912;52.754;5.994;2023-06-01T09:48:31;13.90;99.90
59128;DHT22;44912;52.754;5.994;2023-06-01T09:50:57;13.90;99.90
59128;DHT22;44912;52.754;5.994;2023-06-01T09:53:22;14.00;99.90
59128;DHT22;44912;52.754;5.994;2023-06-01T09:56:01;14.10;99.90
59128;DHT22;44912;52.754;5.994;2023-06-01T09:58:27;14.20;99.90
59128;DHT22;44912;52.754;5.994;2023-06-01T10:00:53;14.30;99.90
59128;DHT22;44912;52.754;5.994;2023-06-01T10:03:21;14.30;99.90
59128;DHT22;44912;52.754;5.994;2023-06-01T10:05:48;14.40;99.90
59128;DHT22;44912;52.754;5.994;2023-06-01T10:08:16;14.40;99.90
59128;DHT22;44912;52.754;5.994;2023-06-01T10:10:43;14.40;99.90
59128;DHT22;44912;52.754;5.994;2023-06-01T10:13:10;14.50;99.90
59128;DHT22;44912;52.754;5.994;2023-06-01T10:15:36;14.50;99.90
59128;DHT22;44912;52.754;5.994;2023-06-01T10:18:03;14.40;99.90
59128;DHT22;44912;52.754;5.994;2023-06-01T10:20:32;14.30;99.90
59128;DHT22;44912;52.754;5.994;2023-06-01T10:23:00;14.20;99.90
59128;DHT22;44912;52.754;5.994;2023-06-01T10:25:30;14.20;99.90
59128;DHT22;44912;52.754;5.994;2023-06-01T10:28:02;14.20;99.90
59128;DHT22;44912;52.754;5.994;2023-06-01T10:30:28;14.20;99.90
59128;DHT22;44912;52.754;5.994;2023-06-01T10:32:54;14.20;99.90
59128;DHT22;44912;52.754;5.994;2023-06-01T10:40:36;14.50;99.90
59128;DHT22;44912;52.754;5.994;2023-06-01T10:43:03;14.60;99.90
59128;DHT22;44912;52.754;5.994;2023-06-01T10:45:39;14.60;99.90
59128;DHT22;44912;52.754;5.994;2023-06-01T10:48:12;14.70;99.90
59128;DHT22;44912;52.754;5.994;2023-06-01T10:50:41;14.70;99.90
59128;DHT22;44912;52.754;5.994;2023-06-01T10:53:28;14.70;99.90
59128;DHT22;44912;52.754;5.994;2023-06-01T10:56:18;14.80;99.90
59128;DHT22;44912;52.754;5.994;2023-06-01T10:58:44;14.90;99.90
59128;DHT22;44912;52.754;5.994;2023-06-01T11:01:10;14.90;99.90
59128;DHT22;44912;52.754;5.994;2023-06-01T11:03:44;15.00;99.90
59128;DHT22;44912;52.754;5.994;2023-06-01T11:06:24;15.10;99.90
59128;DHT22;44912;52.754;5.994;2023-06-01T11:08:52;15.00;99.90
59128;DHT22;44912;52.754;5.994;2023-06-01T11:11:18;15.00;99.90
59128;DHT22;44912;52.754;5.994;2023-06-01T11:14:06;15.00;99.90
59128;DHT22;44912;52.754;5.994;2023-06-01T11:16:32;15.00;99.90
59128;DHT22;44912;52.754;5.994;2023-06-01T11:19:03;14.90;99.90
59128;DHT22;44912;52.754;5.994;2023-06-01T11:21:40;14.90;99.90
59128;DHT22;44912;52.754;5.994;2023-06-01T11:24:08;14.80;99.90
59128;DHT22;44912;52.754;5.994;2023-06-01T11:26:39;14.80;99.90
59128;DHT22;44912;52.754;5.994;2023-06-01T11:29:09;14.70;99.90
59128;DHT22;44912;52.754;5.994;2023-06-01T11:31:45;14.70;99.90
59128;DHT22;44912;52.754;5.994;2023-06-01T11:34:12;14.60;99.90
59128;DHT22;44912;52.754;5.994;2023-06-01T11:36:40;14.70;99.90
59128;DHT22;44912;52.754;5.994;2023-06-01T11:39:17;14.90;99.90
59128;DHT22;44912;52.754;5.994;2023-06-01T11:41:43;14.90;99.90
59128;DHT22;44912;52.754;5.994;2023-06-01T11:44:09;14.80;99.90
59128;DHT22;44912;52.754;5.994;2023-06-01T11:46:35;14.80;99.90
59128;DHT22;44912;52.754;5.994;2023-06-01T11:49:04;14.80;99.90
59128;DHT22;44912;52.754;5.994;2023-06-01T11:51:38;14.90;99.90
59128;DHT22;44912;52.754;5.994;2023-06-01T11:54:10;15.10;99.90
59128;DHT22;44912;52.754;5.994;2023-06-01T11:56:36;15.10;99.90
59128;DHT22;44912;52.754;5.994;2023-06-01T11:59:05;15.20;99.90
59128;DHT22;44912;52.754;5.994;2023-06-01T12:01:42;15.40;99.90
59128;DHT22;44912;52.754;5.994;2023-06-01T12:04:12;15.40;99.90
59128;DHT22;44912;52.754;5.994;2023-06-01T12:06:38;15.50;99.90
59128;DHT22;44912;52.754;5.994;2023-06-01T12:09:03;15.60;99.90
59128;DHT22;44912;52.754;5.994;2023-06-01T12:11:32;15.60;99.90
59128;DHT22;44912;52.754;5.994;2023-06-01T12:13:59;15.70;99.90
59128;DHT22;44912;52.754;5.994;2023-06-01T12:16:52;15.70;99.90
59128;DHT22;44912;52.754;5.994;2023-06-01T12:19:17;15.90;99.90
59128;DHT22;44912;52.754;5.994;2023-06-01T12:21:50;16.00;99.90
59128;DHT22;44912;52.754;5.994;2023-06-01T12:24:18;16.00;99.90
59128;DHT22;44912;52.754;5.994;2023-06-01T12:26:43;16.10;99.90
59128;DHT22;44912;52.754;5.994;2023-06-01T12:29:09;16.30;99.90
59128;DHT22;44912;52.754;5.994;2023-06-01T12:31:34;16.40;99.90
59128;DHT22;44912;52.754;5.994;2023-06-01T12:34:00;16.30;99.90
59128;DHT22;44912;52.754;5.994;2023-06-01T12:36:31;16.30;99.90
59128;DHT22;44912;52.754;5.994;2023-06-01T12:38:57;16.20;99.90
59128;DHT22;44912;52.754;5.994;2023-06-01T12:41:24;16.10;99.90
59128;DHT22;44912;52.754;5.994;2023-06-01T12:43:51;16.10;99.90
59128;DHT22;44912;52.754;5.994;2023-06-01T12:46:20;16.00;99.90
59128;DHT22;44912;52.754;5.994;2023-06-01T12:48:46;16.00;99.90
59128;DHT22;44912;52.754;5.994;2023-06-01T12:51:12;16.00;99.90
59128;DHT22;44912;52.754;5.994;2023-06-01T12:53:39;15.90;99.90
59128;DHT22;44912;52.754;5.994;2023-06-01T12:56:05;15.80;99.90
59128;DHT22;44912;52.754;5.994;2023-06-01T12:58:31;15.70;99.90
59128;DHT22;44912;52.754;5.994;2023-06-01T13:00:57;15.80;99.90
59128;DHT22;44912;52.754;5.994;2023-06-01T13:03:23;15.90;99.90
59128;DHT22;44912;52.754;5.994;2023-06-01T13:05:49;16.10;99.90
59128;DHT22;44912;52.754;5.994;2023-06-01T13:08:19;16.10;99.90
59128;DHT22;44912;52.754;5.994;2023-06-01T13:10:48;16.00;99.90
59128;DHT22;44912;52.754;5.994;2023-06-01T13:13:14;15.90;99.90
59128;DHT22;44912;52.754;5.994;2023-06-01T13:15:41;16.00;99.90
59128;DHT22;44912;52.754;5.994;2023-06-01T13:18:07;16.00;99.90
59128;DHT22;44912;52.754;5.994;2023-06-01T13:20:33;16.00;99.90
59128;DHT22;44912;52.754;5.994;2023-06-01T13:22:59;16.00;99.90
59128;DHT22;44912;52.754;5.994;2023-06-01T13:25:24;16.00;99.90
59128;DHT22;44912;52.754;5.994;2023-06-01T13:27:50;15.90;99.90
59128;DHT22;44912;52.754;5.994;2023-06-01T13:30:16;15.90;99.90
59128;DHT22;44912;52.754;5.994;2023-06-01T13:32:43;15.90;99.90
59128;DHT22;44912;52.754;5.994;2023-06-01T13:35:09;15.70;99.90
59128;DHT22;44912;52.754;5.994;2023-06-01T13:37:36;15.70;99.90
59128;DHT22;44912;52.754;5.994;2023-06-01T13:40:02;15.70;99.90
59128;DHT22;44912;52.754;5.994;2023-06-01T13:42:30;15.70;99.90
59128;DHT22;44912;52.754;5.994;2023-06-01T13:44:56;15.70;99.90
59128;DHT22;44912;52.754;5.994;2023-06-01T13:47:22;15.70;99.90
59128;DHT22;44912;52.754;5.994;2023-06-01T13:49:47;15.80;99.90
59128;DHT22;44912;52.754;5.994;2023-06-01T13:52:13;15.80;99.90
59128;DHT22;44912;52.754;5.994;2023-06-01T13:54:39;15.90;99.90
59128;DHT22;44912;52.754;5.994;2023-06-01T13:57:04;16.00;99.90
59128;DHT22;44912;52.754;5.994;2023-06-01T13:59:31;16.10;99.90
59128;DHT22;44912;52.754;5.994;2023-06-01T14:01:57;16.10;99.90
59128;DHT22;44912;52.754;5.994;2023-06-01T14:04:23;16.00;99.90
59128;DHT22;44912;52.754;5.994;2023-06-01T14:06:48;15.90;99.90
59128;DHT22;44912;52.754;5.994;2023-06-01T14:09:17;15.80;99.90
59128;DHT22;44912;52.754;5.994;2023-06-01T14:11:43;15.70;99.90
59128;DHT22;44912;52.754;5.994;2023-06-01T14:14:09;15.40;99.90
59128;DHT22;44912;52.754;5.994;2023-06-01T14:16:34;15.30;99.90
59128;DHT22;44912;52.754;5.994;2023-06-01T14:19:00;15.10;99.90
59128;DHT22;44912;52.754;5.994;2023-06-01T14:21:25;15.00;99.90
59128;DHT22;44912;52.754;5.994;2023-06-01T14:23:51;15.00;99.90
59128;DHT22;44912;52.754;5.994;2023-06-01T14:26:17;15.10;99.90
59128;DHT22;44912;52.754;5.994;2023-06-01T14:28:43;15.20;99.90
59128;DHT22;44912;52.754;5.994;2023-06-01T14:31:08;15.30;99.90
59128;DHT22;44912;52.754;5.994;2023-06-01T14:33:34;15.50;99.90
59128;DHT22;44912;52.754;5.994;2023-06-01T14:35:59;15.50;99.90
59128;DHT22;44912;52.754;5.994;2023-06-01T14:38:25;15.50;99.90
59128;DHT22;44912;52.754;5.994;2023-06-01T14:40:50;15.50;99.90
59128;DHT22;44912;52.754;5.994;2023-06-01T14:43:17;15.50;99.90
59128;DHT22;44912;52.754;5.994;2023-06-01T14:45:42;15.50;99.90
59128;DHT22;44912;52.754;5.994;2023-06-01T14:48:08;15.40;99.90
59128;DHT22;44912;52.754;5.994;2023-06-01T14:50:34;15.30;99.90
59128;DHT22;44912;52.754;5.994;2023-06-01T14:52:59;15.20;99.90
59128;DHT22;44912;52.754;5.994;2023-06-01T14:55:26;15.10;99.90
59128;DHT22;44912;52.754;5.994;2023-06-01T14:57:51;15.00;99.90
59128;DHT22;44912;52.754;5.994;2023-06-01T15:00:17;14.80;99.90
59128;DHT22;44912;52.754;5.994;2023-06-01T15:02:44;14.90;99.90
59128;DHT22;44912;52.754;5.994;2023-06-01T15:05:11;15.00;99.90
59128;DHT22;44912;52.754;5.994;2023-06-01T15:07:36;15.10;99.90
59128;DHT22;44912;52.754;5.994;2023-06-01T15:10:02;15.20;99.90
59128;DHT22;44912;52.754;5.994;2023-06-01T15:12:28;15.20;99.90
59128;DHT22;44912;52.754;5.994;2023-06-01T15:14:54;15.10;99.90
59128;DHT22;44912;52.754;5.994;2023-06-01T15:17:19;15.20;99.90
59128;DHT22;44912;52.754;5.994;2023-06-01T15:19:45;15.20;99.90
59128;DHT22;44912;52.754;5.994;2023-06-01T15:22:11;15.20;99.90
59128;DHT22;44912;52.754;5.994;2023-06-01T15:24:37;15.10;99.90
59128;DHT22;44912;52.754;5.994;2023-06-01T15:27:11;15.00;99.90
59128;DHT22;44912;52.754;5.994;2023-06-01T15:29:37;14.80;99.90
59128;DHT22;44912;52.754;5.994;2023-06-01T15:32:03;14.70;99.90
59128;DHT22;44912;52.754;5.994;2023-06-01T15:34:28;14.70;99.90
59128;DHT22;44912;52.754;5.994;2023-06-01T15:36:54;14.70;99.90
59128;DHT22;44912;52.754;5.994;2023-06-01T15:39:21;14.70;99.90
59128;DHT22;44912;52.754;5.994;2023-06-01T15:41:46;14.60;99.90
59128;DHT22;44912;52.754;5.994;2023-06-01T15:44:12;14.60;99.90
59128;DHT22;44912;52.754;5.994;2023-06-01T15:46:37;14.60;99.90
59128;DHT22;44912;52.754;5.994;2023-06-01T15:49:03;14.60;99.90